Time;durP1;ratioP1;P1;durP2;ratioP2;P2;SDS_P1;SDS_P2;PMS_P1;PMS_P2;Temp;Humidity;BMP_temperature;BMP_pressure;BME280_temperature;BME280_humidity;BME280_pressure;Samples;Min_cycle;Max_cycle;Signal;HPM_P1;HPM_P2
2023/09/06 00:01:52;;;;;;;;;3.00;3.00;;;;;-143.90;90.57;75701.50;4930084;28;102382;-76
2023/09/06 00:04:19;;;;;;;;;3.00;2.00;;;;;-143.90;90.00;75705.66;4942730;28;103696;-75
2023/09/06 00:06:46;;;;;;;;;5.00;3.00;;;;;-143.90;89.51;75709.78;4936390;28;105245;-76
2023/09/06 00:09:13;;;;;;;;;2.50;2.00;;;;;-143.90;89.71;75713.91;4931667;28;102102;-77
2023/09/06 00:11:39;;;;;;;;;4.50;3.50;;;;;-143.90;90.31;75722.19;4933299;28;102453;-75
2023/09/06 00:14:06;;;;;;;;;4.25;4.25;;;;;-143.90;90.38;75726.31;4932897;28;102645;-75
2023/09/06 00:16:33;;;;;;;;;5.00;5.00;;;;;-143.90;89.28;75732.53;4943294;28;105428;-75
2023/09/06 00:19:00;;;;;;;;;3.00;3.00;;;;;-143.90;89.58;75732.53;4941300;28;101980;-76
2023/09/06 00:21:27;;;;;;;;;4.50;4.00;;;;;-143.90;90.37;75751.13;4943825;28;103355;-76
2023/09/06 00:23:54;;;;;;;;;5.25;4.00;;;;;-143.90;90.74;75749.06;4930641;28;103420;-75
2023/09/06 00:26:21;;;;;;;;;3.25;3.00;;;;;-143.90;90.60;75742.88;4927530;28;105274;-77
2023/09/06 00:28:47;;;;;;;;;5.00;4.00;;;;;-143.90;89.94;75751.13;4935695;28;102191;-76
2023/09/06 00:31:14;;;;;;;;;2.00;2.00;;;;;-143.90;89.80;75742.88;4940816;28;103329;-75
2023/09/06 00:33:42;;;;;;;;;2.75;2.75;;;;;-143.90;88.95;75755.28;4928769;28;103160;-75
2023/09/06 00:36:09;;;;;;;;;2.00;2.00;;;;;-143.90;88.57;75753.19;4940274;28;105114;-75
2023/09/06 00:38:36;;;;;;;;;3.00;3.00;;;;;-143.90;89.03;75759.41;4929436;28;105306;-75
2023/09/06 00:41:03;;;;;;;;;4.50;3.50;;;;;-143.90;88.88;75759.41;4926836;28;102367;-75
2023/09/06 00:43:30;;;;;;;;;3.00;3.00;;;;;-143.90;88.50;75769.75;4928779;28;102733;-75
2023/09/06 00:45:57;;;;;;;;;3.00;3.00;;;;;-143.90;89.54;75765.59;4932857;28;103587;-75
2023/09/06 00:48:26;;;;;;;;;2.25;2.25;;;;;-143.90;89.89;75771.81;4921761;28;103477;-75
2023/09/06 00:50:55;;;;;;;;;1.75;1.25;;;;;-143.90;90.13;75767.69;4918793;28;102532;-75
2023/09/06 00:53:25;;;;;;;;;4.25;3.50;;;;;-143.90;90.33;75767.69;4927257;28;102273;-75
2023/09/06 00:55:52;;;;;;;;;2.00;2.00;;;;;-143.90;90.23;75765.59;4922287;28;104160;-75
2023/09/06 00:58:20;;;;;;;;;1.50;0.75;;;;;-143.90;89.25;75765.59;4923596;28;102392;-75
2023/09/06 01:00:49;;;;;;;;;1.50;1.50;;;;;-143.90;88.36;75769.75;4906849;28;102153;-76
2023/09/06 01:03:17;;;;;;;;;4.00;4.00;;;;;-143.90;87.38;75778.00;4921707;28;103732;-75
2023/09/06 01:05:55;;;;;;;;;4.00;3.25;;;;;-143.90;87.14;75784.22;4932366;28;108853;-76
2023/09/06 01:08:28;;;;;;;;;4.50;4.00;;;;;-143.90;88.14;75794.56;4928179;28;101978;-75
2023/09/06 01:11:23;;;;;;;;;3.00;3.00;;;;;-143.90;89.38;75809.03;4922822;28;102063;-75
2023/09/06 01:13:55;;;;;;;;;5.00;3.75;;;;;-143.90;91.84;75821.44;4928031;28;102490;-76
2023/09/06 01:16:29;;;;;;;;;6.50;5.00;;;;;-143.90;92.94;75833.84;4929102;28;104150;-76
2023/09/06 01:18:57;;;;;;;;;4.00;4.00;;;;;-143.90;93.04;75840.03;4925749;28;102196;-76
2023/09/06 01:21:43;;;;;;;;;4.00;3.00;;;;;-143.90;93.03;75852.44;4925747;28;102059;-76
2023/09/06 01:24:10;;;;;;;;;6.00;6.00;;;;;-143.90;93.76;75854.53;4922442;28;102533;-76
2023/09/06 01:26:37;;;;;;;;;6.50;5.00;;;;;-143.90;94.14;75862.78;4921657;28;104142;-76
2023/09/06 01:29:04;;;;;;;;;5.00;4.00;;;;;-143.90;94.44;75875.19;4912164;28;102036;-76
2023/09/06 01:31:31;;;;;;;;;9.25;9.00;;;;;-143.90;94.87;75866.94;4912096;28;102104;-76
2023/09/06 01:33:58;;;;;;;;;6.00;6.00;;;;;-143.90;94.91;75866.94;4933197;28;102697;-76
2023/09/06 01:36:25;;;;;;;;;3.00;3.00;;;;;-143.90;94.39;75852.44;4920778;28;103519;-76
2023/09/06 01:38:51;;;;;;;;;3.75;3.00;;;;;-143.90;93.17;75848.31;4925249;28;103361;-76
2023/09/06 01:41:18;;;;;;;;;6.00;5.00;;;;;-143.90;91.87;75842.13;4926436;28;103226;-76
2023/09/06 01:43:45;;;;;;;;;7.00;7.00;;;;;-143.90;91.24;75846.25;4924619;28;103094;-75
2023/09/06 01:46:12;;;;;;;;;4.00;3.50;;;;;-143.90;90.48;75846.25;4925940;28;109014;-75
2023/09/06 01:48:39;;;;;;;;;1.75;1.75;;;;;-143.90;90.06;75852.44;4902682;28;102279;-76
2023/09/06 01:51:08;;;;;;;;;3.00;3.00;;;;;-143.90;91.41;75858.66;4920984;28;102396;-76
2023/09/06 01:53:35;;;;;;;;;3.00;3.00;;;;;-143.90;92.82;75866.94;4909360;28;102076;-76
2023/09/06 01:56:02;;;;;;;;;7.00;5.25;;;;;-143.90;94.49;75875.19;4918684;28;104206;-75
2023/09/06 01:58:32;;;;;;;;;7.75;4.75;;;;;-143.90;94.91;75873.13;4913584;28;102106;-75
2023/09/06 02:01:04;;;;;;;;;6.75;5.25;;;;;-143.90;94.68;75866.94;4921075;28;102017;-75
2023/09/06 02:03:34;;;;;;;;;6.00;4.00;;;;;-143.90;94.09;75862.78;4909682;28;103104;-75
2023/09/06 02:06:02;;;;;;;;;3.00;3.00;;;;;-143.90;93.40;75856.59;4910478;28;103974;-76
2023/09/06 02:08:29;;;;;;;;;3.00;3.00;;;;;-143.90;91.92;75856.59;4896782;28;103439;-76
2023/09/06 02:10:56;;;;;;;;;3.25;3.25;;;;;-143.90;90.71;75858.66;4920388;28;102901;-75
2023/09/06 02:13:23;;;;;;;;;4.00;4.00;;;;;-143.90;89.89;75869.00;4919122;28;102106;-76
2023/09/06 02:15:49;;;;;;;;;4.00;3.00;;;;;-143.90;90.05;75862.78;4915246;28;103208;-76
2023/09/06 02:18:17;;;;;;;;;3.00;3.00;;;;;-143.90;90.09;75866.94;4899996;28;102213;-75
2023/09/06 02:20:45;;;;;;;;;3.25;3.25;;;;;-143.90;89.69;75875.19;4932072;28;102226;-76
2023/09/06 02:23:11;;;;;;;;;5.75;4.75;;;;;-143.90;89.80;75879.34;4910850;28;102099;-76
2023/09/06 02:25:38;;;;;;;;;2.25;2.25;;;;;-143.90;90.83;75887.59;4910501;28;104231;-76
2023/09/06 02:28:06;;;;;;;;;3.25;2.50;;;;;-143.90;91.75;75885.53;4907617;28;102604;-76
2023/09/06 02:30:36;;;;;;;;;2.25;2.00;;;;;-143.90;93.03;75891.75;4910763;28;103623;-76
2023/09/06 02:33:04;;;;;;;;;9.25;6.25;;;;;-143.90;94.76;75910.34;4909762;28;102519;-76
2023/09/06 02:35:34;;;;;;;;;8.50;8.00;;;;;-143.90;95.01;75920.69;4903391;28;105125;-76
2023/09/06 02:38:01;;;;;;;;;8.25;8.00;;;;;-143.90;94.94;75914.47;4911677;28;102286;-76
2023/09/06 02:40:27;;;;;;;;;7.75;6.25;;;;;-143.90;93.52;75910.34;4910266;28;102514;-75
2023/09/06 02:42:54;;;;;;;;;2.75;2.75;;;;;-143.90;91.97;75920.69;4890460;28;102072;-76
2023/09/06 02:45:22;;;;;;;;;5.50;5.00;;;;;-143.90;90.99;75928.97;4911005;28;104160;-76
2023/09/06 02:47:50;;;;;;;;;5.75;4.75;;;;;-143.90;90.83;75937.22;4910665;28;102012;-76
2023/09/06 02:50:22;;;;;;;;;3.00;3.00;;;;;-143.90;91.18;75937.22;4914157;28;102571;-76
2023/09/06 02:52:52;;;;;;;;;3.75;3.75;;;;;-143.90;91.41;75937.22;4902797;28;101952;-75
2023/09/06 02:55:20;;;;;;;;;7.75;6.25;;;;;-143.90;91.20;75939.28;4891831;28;109665;-76
2023/09/06 02:57:49;;;;;;;;;3.75;3.00;;;;;-143.90;91.35;75935.16;4909739;28;102176;-76
2023/09/06 03:00:26;;;;;;;;;4.00;2.00;;;;;-143.90;91.23;75945.50;4895470;28;102399;-76
2023/09/06 03:03:04;;;;;;;;;5.75;5.75;;;;;-143.90;91.37;75949.63;4910018;28;102409;-76
2023/09/06 03:05:35;;;;;;;;;4.00;3.75;;;;;-143.90;90.60;75947.56;4908698;28;104202;-75
2023/09/06 03:08:01;;;;;;;;;4.00;3.00;;;;;-143.90;90.37;75949.63;4902115;28;102254;-75
2023/09/06 03:10:28;;;;;;;;;5.00;5.00;;;;;-143.90;90.89;75953.78;4912363;28;102069;-75
2023/09/06 03:12:58;;;;;;;;;4.00;2.00;;;;;-143.90;90.59;75949.63;4910836;28;102448;-75
2023/09/06 03:15:29;;;;;;;;;4.75;4.75;;;;;-143.90;90.52;75953.78;4878024;28;108490;-76
2023/09/06 03:17:58;;;;;;;;;2.75;2.00;;;;;-143.90;90.27;75957.91;4898737;28;102369;-76
2023/09/06 03:20:42;;;;;;;;;6.00;5.00;;;;;-143.90;90.07;75957.91;4913064;28;102299;-75
2023/09/06 03:23:17;;;;;;;;;3.75;3.00;;;;;-143.90;89.65;75966.19;4902400;28;107673;-76
2023/09/06 03:25:47;;;;;;;;;2.75;2.75;;;;;-143.90;89.76;75970.31;4932450;28;107902;-76
2023/09/06 03:28:15;;;;;;;;;3.00;3.00;;;;;-143.90;89.34;75974.44;4930919;28;103345;-76
2023/09/06 03:30:42;;;;;;;;;3.00;3.00;;;;;-143.90;89.51;75974.44;4931741;28;103675;-76
2023/09/06 03:33:09;;;;;;;;;4.25;3.00;;;;;-143.90;89.77;75982.72;4923047;28;102384;-76
2023/09/06 03:35:36;;;;;;;;;3.00;2.75;;;;;-143.90;90.15;75982.72;4916086;28;104936;-76
2023/09/06 03:38:08;;;;;;;;;8.00;7.25;;;;;-143.90;91.89;75999.25;4920604;28;102035;-76
2023/09/06 03:40:36;;;;;;;;;7.50;6.00;;;;;-143.90;92.09;76009.59;4910282;28;102449;-76
2023/09/06 03:43:19;;;;;;;;;5.50;4.25;;;;;-143.90;92.20;76007.53;4925648;28;102511;-76
2023/09/06 03:45:55;;;;;;;;;6.00;6.00;;;;;-143.90;92.29;76009.59;4925411;28;110966;-75
2023/09/06 03:48:23;;;;;;;;;2.00;2.00;;;;;-143.90;92.17;76003.41;4926620;28;102091;-74
2023/09/06 03:50:55;;;;;;;;;6.00;6.00;;;;;-143.90;91.87;76001.34;4918764;28;102237;-76
2023/09/06 03:53:26;;;;;;;;;2.25;2.00;;;;;-143.90;91.17;76003.41;4933154;28;102623;-75
2023/09/06 03:55:57;;;;;;;;;4.00;3.00;;;;;-143.90;90.51;76001.34;4932786;28;104136;-75
2023/09/06 03:58:25;;;;;;;;;5.25;4.25;;;;;-143.90;90.78;76022.00;4921580;28;102568;-74
2023/09/06 04:00:52;;;;;;;;;18.50;16.25;;;;;-143.90;91.96;76036.47;4932385;28;102668;-76
2023/09/06 04:03:20;;;;;;;;;17.50;16.50;;;;;-143.90;92.48;76036.47;4928199;28;102289;-76
2023/09/06 04:05:47;;;;;;;;;16.25;15.75;;;;;-143.90;93.32;76026.16;4909386;28;108552;-77
2023/09/06 04:08:17;;;;;;;;;12.50;11.00;;;;;-143.90;93.58;76024.06;4912093;28;103243;-76
2023/09/06 04:10:45;;;;;;;;;18.75;17.50;;;;;-143.90;93.23;76019.94;4917814;28;102688;-76
2023/09/06 04:13:13;;;;;;;;;16.25;15.50;;;;;-143.90;92.77;76026.16;4931015;28;102471;-76
2023/09/06 04:15:42;;;;;;;;;16.00;13.00;;;;;-143.90;93.60;76022.00;4910892;28;104366;-76
2023/09/06 04:18:10;;;;;;;;;17.75;12.50;;;;;-143.90;94.78;76038.56;4899653;28;102196;-76
2023/09/06 04:20:46;;;;;;;;;13.25;13.00;;;;;-143.90;95.60;76042.69;4928984;28;102380;-76
2023/09/06 04:23:13;;;;;;;;;12.75;12.75;;;;;-143.90;95.83;76053.03;4924663;28;103115;-76
2023/09/06 04:25:46;;;;;;;;;13.00;11.50;;;;;-143.90;95.59;76046.81;4923472;28;103900;-76
2023/09/06 04:28:15;;;;;;;;;9.00;9.00;;;;;-143.90;95.63;76042.69;4929316;28;102426;-75
2023/09/06 04:30:47;;;;;;;;;6.00;5.75;;;;;-143.90;95.52;76038.56;4928788;28;102012;-75
2023/09/06 04:33:14;;;;;;;;;9.00;7.00;;;;;-143.90;94.91;76038.56;4926969;28;102256;-75
2023/09/06 04:35:47;;;;;;;;;4.75;3.50;;;;;-143.90;94.58;76036.47;4930398;28;104097;-75
2023/09/06 04:38:18;;;;;;;;;6.25;5.75;;;;;-143.90;95.13;76042.69;4929044;28;103444;-74
2023/09/06 04:40:47;;;;;;;;;8.50;7.00;;;;;-143.90;96.27;76053.03;4932634;28;105070;-74
2023/09/06 04:43:16;;;;;;;;;9.25;8.75;;;;;-143.90;96.98;76048.88;4932765;28;102432;-73
2023/09/06 04:45:44;;;;;;;;;10.50;8.50;;;;;-143.90;97.51;76044.75;4912779;28;104093;-75
2023/09/06 04:48:16;;;;;;;;;13.00;10.75;;;;;-143.90;97.41;76036.47;4947489;28;102251;-75
2023/09/06 04:50:45;;;;;;;;;11.50;9.50;;;;;-143.90;98.24;76038.56;4936275;28;102075;-76
2023/09/06 04:53:13;;;;;;;;;11.75;11.00;;;;;-143.90;98.90;76024.06;4937010;28;103658;-76
2023/09/06 04:55:40;;;;;;;;;13.00;11.75;;;;;-143.90;99.29;76028.22;4949253;28;103145;-76
2023/09/06 04:58:08;;;;;;;;;10.25;10.00;;;;;-143.90;99.21;76013.75;4934856;28;102760;-76
2023/09/06 05:00:38;;;;;;;;;11.00;10.00;;;;;-143.90;98.79;76005.47;4946001;28;103179;-75
2023/09/06 05:03:11;;;;;;;;;11.75;9.75;;;;;-143.90;98.88;75984.78;4935216;28;102101;-76
2023/09/06 05:05:41;;;;;;;;;9.50;8.00;;;;;-143.90;98.82;75978.59;4925799;28;104258;-75
2023/09/06 05:08:09;;;;;;;;;7.00;6.25;;;;;-143.90;98.44;75968.25;4938339;28;101861;-76
2023/09/06 05:10:36;;;;;;;;;10.25;9.50;;;;;-143.90;98.49;75970.31;4940209;28;102118;-76
2023/09/06 05:13:07;;;;;;;;;17.00;15.75;;;;;-143.90;98.65;75970.31;4932631;28;102021;-75
2023/09/06 05:15:35;;;;;;;;;13.00;12.50;;;;;-143.90;98.31;75962.03;4931703;28;104118;-75
2023/09/06 05:18:04;;;;;;;;;14.75;11.75;;;;;-143.90;98.53;75943.44;4938350;28;101987;-75
2023/09/06 05:20:35;;;;;;;;;12.00;11.00;;;;;-143.90;98.34;75933.09;4939217;28;101996;-74
2023/09/06 05:23:19;;;;;;;;;10.00;9.25;;;;;-143.90;97.85;75922.75;4939040;28;103466;-76
2023/09/06 05:25:46;;;;;;;;;5.75;5.75;;;;;-143.90;97.60;75914.47;4924085;28;108721;-76
2023/09/06 05:28:14;;;;;;;;;9.00;6.00;;;;;-143.90;97.06;75910.34;4922332;28;103127;-76
2023/09/06 05:30:43;;;;;;;;;12.00;11.25;;;;;-143.90;97.32;75887.59;4934168;28;102055;-76
2023/09/06 05:33:12;;;;;;;;;7.50;7.50;;;;;-143.90;97.39;75871.06;4925569;28;102642;-75
2023/09/06 05:35:41;;;;;;;;;8.00;5.50;;;;;-143.90;97.08;75852.44;4927892;28;103644;-76
2023/09/06 05:38:09;;;;;;;;;9.50;8.00;;;;;-143.90;96.96;75850.38;4917902;28;102670;-76
2023/09/06 05:40:36;;;;;;;;;12.50;12.50;;;;;-143.90;97.53;75842.13;4911829;28;103172;-76
2023/09/06 05:43:03;;;;;;;;;11.75;10.00;;;;;-143.90;97.20;75829.72;4937865;28;102002;-76
2023/09/06 05:45:31;;;;;;;;;9.75;9.50;;;;;-143.90;96.60;75804.91;4903750;28;104650;-76
2023/09/06 05:47:57;;;;;;;;;8.25;7.00;;;;;-143.90;96.16;75788.34;4935332;28;101907;-76
2023/09/06 05:50:26;;;;;;;;;13.25;12.50;;;;;-143.90;95.19;75763.53;4931801;28;101976;-76
2023/09/06 05:52:54;;;;;;;;;13.75;12.00;;;;;-143.90;94.58;75718.06;4924279;28;102406;-76
2023/09/06 05:55:21;;;;;;;;;15.75;14.00;;;;;-143.90;93.51;75674.63;4932120;28;104267;-76
2023/09/06 05:57:47;;;;;;;;;14.75;13.75;;;;;-143.90;92.24;75622.94;4935625;28;101819;-75
2023/09/06 06:00:15;;;;;;;;;9.75;9.75;;;;;-143.90;90.42;75579.53;4923382;28;103079;-75
2023/09/06 06:02:44;;;;;;;;;13.50;11.00;;;;;-143.90;88.90;75540.22;4905968;28;102282;-75
2023/09/06 06:05:12;;;;;;;;;12.00;11.00;;;;;-143.90;87.73;75527.81;4932502;28;104070;-75
2023/09/06 06:07:39;;;;;;;;;12.75;12.25;;;;;-143.90;86.54;75498.88;4918441;28;102150;-76
2023/09/06 06:10:10;;;;;;;;;12.25;11.25;;;;;-143.90;85.86;75486.47;4928555;28;102275;-76
2023/09/06 06:12:38;;;;;;;;;12.25;12.25;;;;;-143.90;85.58;75474.06;4927008;28;102393;-76
2023/09/06 06:15:12;;;;;;;;;12.50;11.50;;;;;-143.90;84.38;75451.31;4925161;28;104289;-75
2023/09/06 06:17:39;;;;;;;;;10.25;10.25;;;;;-143.90;84.12;75434.78;4912484;28;102235;-75
2023/09/06 06:20:07;;;;;;;;;11.75;10.50;;;;;-143.90;84.22;75420.31;4911511;28;104203;-75
2023/09/06 06:22:40;;;;;;;;;10.25;9.50;;;;;-143.90;85.24;75412.03;4907978;28;102014;-76
2023/09/06 06:25:09;;;;;;;;;12.25;9.25;;;;;-143.90;82.70;75395.50;4915640;28;104333;-76
2023/09/06 06:27:37;;;;;;;;;8.50;8.00;;;;;-143.90;82.83;75374.84;4904955;28;102455;-76
2023/09/06 06:30:05;;;;;;;;;13.75;11.00;;;;;-143.90;81.10;75335.53;4913699;28;102867;-76
2023/09/06 06:32:33;;;;;;;;;9.75;8.75;;;;;-143.90;81.02;75312.81;4915232;28;102616;-76
2023/09/06 06:35:05;;;;;;;;;15.00;14.50;;;;;-143.90;79.37;75283.84;4912136;28;104187;-76
2023/09/06 06:37:32;;;;;;;;;14.00;12.00;;;;;-143.90;79.29;75254.91;4895902;28;101997;-75
2023/09/06 06:39:59;;;;;;;;;11.50;11.00;;;;;-143.90;78.03;75246.66;4910269;28;102225;-76
2023/09/06 06:42:27;;;;;;;;;15.50;10.75;;;;;-143.90;78.89;75230.09;4912403;28;102534;-75
2023/09/06 06:44:53;;;;;;;;;12.00;11.25;;;;;-143.90;79.46;75180.50;4914660;28;104084;-75
2023/09/06 06:47:20;;;;;;;;;11.50;11.00;;;;;-143.90;76.86;75166.03;4913383;28;102352;-76
2023/09/06 06:49:49;;;;;;;;;12.50;11.00;;;;;-143.90;75.31;75172.22;4911359;28;103300;-76
2023/09/06 06:52:16;;;;;;;;;11.75;11.75;;;;;-143.90;74.37;75151.53;4899016;28;102571;-75
2023/09/06 06:54:43;;;;;;;;;9.00;9.00;;;;;-143.90;76.35;75124.66;4909125;28;104199;-76
2023/09/06 06:57:10;;;;;;;;;8.67;8.00;;;;;-143.90;75.26;75089.53;4910627;28;102363;-76
2023/09/06 06:59:37;;;;;;;;;9.00;8.00;;;;;-143.90;75.82;75046.09;4910153;28;102200;-76
2023/09/06 07:02:04;;;;;;;;;7.00;7.00;;;;;-143.90;74.45;75068.84;4907491;28;102012;-76
2023/09/06 07:04:31;;;;;;;;;8.00;7.33;;;;;-143.90;75.14;75056.44;4901149;28;104301;-75
2023/09/06 07:06:57;;;;;;;;;8.33;8.33;;;;;-143.90;73.36;75031.63;4906755;28;102009;-74
2023/09/06 07:09:24;;;;;;;;;6.33;6.00;;;;;-143.90;72.03;74998.56;4896912;28;101919;-75
2023/09/06 07:11:51;;;;;;;;;14.50;14.50;;;;;-143.90;71.78;74973.75;4902151;28;105026;-73
2023/09/06 07:14:17;;;;;;;;;10.00;8.00;;;;;-143.90;69.72;74994.44;4909363;28;109788;-75
2023/09/06 07:16:44;;;;;;;;;5.00;4.67;;;;;-143.90;70.16;74965.50;4915144;28;102035;-76
2023/09/06 07:19:11;;;;;;;;;3.00;3.00;;;;;-143.90;69.63;74944.81;4909663;28;101994;-75
2023/09/06 07:21:38;;;;;;;;;6.33;5.67;;;;;-143.90;70.95;74920.00;4928314;28;101842;-75
2023/09/06 07:24:05;;;;;;;;;11.67;11.67;;;;;-143.90;68.32;74911.72;4923179;28;104121;-74
2023/09/06 07:26:32;;;;;;;;;11.00;10.67;;;;;-143.90;69.08;74936.53;4931583;28;102058;-76
2023/09/06 07:28:58;;;;;;;;;6.00;5.67;;;;;-143.90;69.07;74915.88;4928405;28;102475;-75
2023/09/06 07:31:25;;;;;;;;;6.67;6.00;;;;;-143.90;68.82;74893.13;4928206;28;102981;-76
2023/09/06 07:33:52;;;;;;;;;6.00;5.00;;;;;-143.90;68.42;74878.66;4929824;28;104448;-76
2023/09/06 07:36:18;;;;;;;;;6.00;5.67;;;;;-143.90;68.57;74862.13;4936811;28;102082;-76
2023/09/06 07:38:46;;;;;;;;;5.00;4.00;;;;;-143.90;67.48;74866.25;4925391;28;102210;-75
2023/09/06 07:41:12;;;;;;;;;6.33;6.00;;;;;-143.90;70.26;74858.00;4918034;28;102673;-75
2023/09/06 07:43:39;;;;;;;;;15.33;14.00;;;;;-143.90;66.93;74849.72;4927484;28;104413;-75
2023/09/06 07:46:09;;;;;;;;;18.67;18.00;;;;;-143.90;66.93;74837.31;4905389;28;102176;-74
2023/09/06 07:48:38;;;;;;;;;19.00;17.00;;;;;-143.90;67.37;74870.38;4934728;28;104493;-75
2023/09/06 07:51:06;;;;;;;;;11.67;10.00;;;;;-143.90;67.33;74841.44;4933109;28;102347;-75
2023/09/06 07:53:33;;;;;;;;;13.67;13.67;;;;;-143.90;67.12;74835.25;4941584;28;103142;-75
2023/09/06 07:56:00;;;;;;;;;11.00;10.00;;;;;-143.90;68.03;74841.44;4942682;28;102202;-74
2023/09/06 07:58:27;;;;;;;;;10.00;9.67;;;;;-143.90;68.71;74808.38;4935137;28;102527;-76
2023/09/06 08:00:57;;;;;;;;;11.00;11.00;;;;;-143.90;67.38;74779.44;4919382;28;102166;-76
2023/09/06 08:03:36;;;;;;;;;7.33;6.67;;;;;-143.90;67.04;74750.50;4923903;28;107759;-76
2023/09/06 08:06:04;;;;;;;;;6.00;6.00;;;;;-143.90;66.33;74733.97;4928726;28;102965;-76
2023/09/06 08:08:31;;;;;;;;;7.67;7.00;;;;;-143.90;62.92;74742.22;4908735;28;102095;-75
2023/09/06 08:10:58;;;;;;;;;6.33;6.33;;;;;-143.90;66.40;74713.28;4932821;28;102124;-75
2023/09/06 08:13:25;;;;;;;;;11.00;8.33;;;;;-143.90;65.76;74705.00;4924308;28;107754;-76
2023/09/06 08:15:52;;;;;;;;;9.00;8.00;;;;;-143.90;64.68;74692.63;4924588;28;102265;-75
2023/09/06 08:18:19;;;;;;;;;7.00;6.67;;;;;-143.90;66.07;74684.34;4930529;28;101944;-75
2023/09/06 08:20:45;;;;;;;;;7.33;7.00;;;;;-143.90;65.15;74694.69;4918106;28;102301;-76
2023/09/06 08:23:12;;;;;;;;;9.00;8.00;;;;;-143.90;65.69;74674.00;4932049;28;104078;-76
2023/09/06 08:25:39;;;;;;;;;7.33;6.67;;;;;-143.90;63.65;74659.53;4949789;28;103003;-76
2023/09/06 08:28:06;;;;;;;;;8.00;7.00;;;;;-143.90;63.59;74655.41;4924972;28;102359;-76
2023/09/06 08:30:33;;;;;;;;;6.00;6.00;;;;;-143.90;64.39;74632.66;4944837;28;102477;-76
2023/09/06 08:32:59;;;;;;;;;4.00;4.00;;;;;-143.90;64.56;74618.19;4935653;28;103856;-74
2023/09/06 08:35:27;;;;;;;;;5.33;5.33;;;;;-143.90;62.62;74614.06;4942012;28;102087;-75
2023/09/06 08:37:54;;;;;;;;;5.00;5.00;;;;;-143.90;62.83;74607.84;4938580;28;102523;-75
2023/09/06 08:40:21;;;;;;;;;6.67;5.67;;;;;-143.90;62.36;74593.38;4938172;28;102475;-75
2023/09/06 08:42:49;;;;;;;;;4.67;4.67;;;;;-143.90;62.86;74576.84;4935066;28;105172;-75
2023/09/06 08:45:24;;;;;;;;;6.33;5.00;;;;;-143.90;62.12;74568.59;4928437;28;102122;-75
2023/09/06 08:47:51;;;;;;;;;7.67;6.67;;;;;-143.90;62.39;74574.78;4955348;28;101988;-74
2023/09/06 08:50:18;;;;;;;;;6.33;6.33;;;;;-143.90;62.87;74560.31;4920085;28;103043;-74
2023/09/06 08:52:45;;;;;;;;;6.00;5.00;;;;;-143.90;62.54;74539.66;4936160;28;104011;-74
2023/09/06 08:55:12;;;;;;;;;5.33;4.00;;;;;-143.90;61.84;74527.25;4938553;28;101961;-75
2023/09/06 08:57:40;;;;;;;;;4.00;3.00;;;;;-143.90;60.54;74500.38;4940733;28;102223;-74
2023/09/06 09:00:09;;;;;;;;;4.00;4.00;;;;;-143.90;61.33;74502.44;4931123;28;101832;-75
2023/09/06 09:02:40;;;;;;;;;4.00;4.00;;;;;-143.90;60.73;74481.78;4940038;28;104422;-75
2023/09/06 09:05:08;;;;;;;;;4.67;4.00;;;;;-143.90;60.05;74471.44;4935760;28;102843;-75
2023/09/06 09:07:49;;;;;;;;;4.00;4.00;;;;;-143.90;58.04;74456.97;4935573;28;102306;-75
2023/09/06 09:10:16;;;;;;;;;4.33;4.00;;;;;-143.90;58.66;74450.75;4933986;28;101907;-75
2023/09/06 09:12:43;;;;;;;;;5.67;5.33;;;;;-143.90;56.87;74446.63;4936451;28;104107;-74
2023/09/06 09:15:10;;;;;;;;;4.33;4.00;;;;;-143.90;60.89;74440.44;4935178;28;101949;-75
2023/09/06 09:17:40;;;;;;;;;4.00;4.00;;;;;-143.90;56.97;74423.88;4933642;28;103041;-75
2023/09/06 09:20:26;;;;;;;;;4.00;3.67;;;;;-143.90;56.53;74409.41;4934032;28;101942;-74
2023/09/06 09:23:00;;;;;;;;;3.67;3.67;;;;;-143.90;54.65;74409.41;4914604;28;103969;-74
2023/09/06 09:25:26;;;;;;;;;12.67;12.00;;;;;-143.90;53.26;74461.09;4929275;28;102226;-75
2023/09/06 09:27:56;;;;;;;;;6.33;6.33;;;;;-143.90;56.41;74446.63;4916970;28;102143;-75
2023/09/06 09:30:24;;;;;;;;;7.00;6.67;;;;;-143.90;57.54;74448.69;4920649;28;102465;-75
2023/09/06 09:33:01;;;;;;;;;9.67;8.33;;;;;-143.90;57.30;74419.75;4912784;28;104247;-75
2023/09/06 09:35:31;;;;;;;;;7.33;7.00;;;;;-143.90;57.33;74407.34;4924584;28;104324;-76
2023/09/06 09:38:01;;;;;;;;;4.67;4.00;;;;;-143.90;57.88;74386.69;4919604;28;101962;-76
2023/09/06 09:40:34;;;;;;;;;3.00;3.00;;;;;-143.90;56.74;74372.22;4944499;28;102081;-76
2023/09/06 09:43:04;;;;;;;;;4.00;4.00;;;;;-143.90;57.39;74361.88;4921156;28;108214;-75
2023/09/06 09:45:45;;;;;;;;;5.00;4.00;;;;;-143.90;54.17;74357.75;4936312;28;102071;-75
2023/09/06 09:48:15;;;;;;;;;5.00;5.00;;;;;-143.90;55.22;74351.53;4916376;28;103102;-75
2023/09/06 09:50:43;;;;;;;;;6.00;6.00;;;;;-143.90;54.67;74343.28;4916684;28;102224;-75
2023/09/06 09:53:12;;;;;;;;;7.33;7.00;;;;;-143.90;53.96;74332.94;4931506;28;104202;-75
2023/09/06 09:55:47;;;;;;;;;11.33;11.33;;;;;-143.90;51.38;74397.03;4912048;28;102412;-75
2023/09/06 09:58:17;;;;;;;;;9.00;9.00;;;;;-143.90;54.68;74374.28;4930964;28;102382;-75
2023/09/06 10:00:44;;;;;;;;;8.67;8.33;;;;;-143.90;53.04;74357.75;4932369;28;102378;-75
2023/09/06 10:03:11;;;;;;;;;5.33;5.00;;;;;-143.90;55.95;74341.22;4935835;28;104125;-75
2023/09/06 10:05:39;;;;;;;;;8.67;7.67;;;;;-143.90;51.56;74341.22;4923113;28;102950;-75
2023/09/06 10:08:09;;;;;;;;;9.00;9.00;;;;;-143.90;52.73;74324.69;4915432;28;101947;-75
2023/09/06 10:10:39;;;;;;;;;6.33;6.33;;;;;-143.90;53.93;74308.13;4931962;28;102213;-74
2023/09/06 10:13:08;;;;;;;;;8.67;8.00;;;;;-143.90;52.51;74304.00;4912171;28;104665;-76
2023/09/06 10:15:36;;;;;;;;;6.00;6.00;;;;;-143.90;52.88;74279.22;4935733;28;101968;-75
2023/09/06 10:18:06;;;;;;;;;6.00;6.00;;;;;-143.90;51.74;74279.22;4932621;28;102071;-75
2023/09/06 10:20:37;;;;;;;;;6.00;6.00;;;;;-143.90;52.63;74281.28;4929991;28;102419;-76
2023/09/06 10:23:06;;;;;;;;;8.67;8.00;;;;;-143.90;52.17;74283.34;4899039;28;104355;-74
2023/09/06 10:25:40;;;;;;;;;7.00;7.00;;;;;-143.90;52.61;74275.06;4899368;28;101884;-75
2023/09/06 10:28:08;;;;;;;;;7.00;6.00;;;;;-143.90;51.77;74266.81;4887077;28;101873;-76
2023/09/06 10:30:46;;;;;;;;;6.00;5.00;;;;;-143.90;50.79;74252.34;4897458;28;102462;-75
2023/09/06 10:33:35;;;;;;;;;6.00;4.67;;;;;-143.90;48.80;74254.41;4912796;28;108551;-75
2023/09/06 10:36:08;;;;;;;;;6.33;6.00;;;;;-143.90;49.42;74254.41;4915790;28;102260;-76
2023/09/06 10:38:51;;;;;;;;;10.00;9.00;;;;;-143.90;50.81;74262.66;4917487;28;102610;-76
2023/09/06 10:41:22;;;;;;;;;8.00;7.00;;;;;-143.90;51.86;74258.53;4908616;28;102008;-76
2023/09/06 10:43:48;;;;;;;;;10.00;9.00;;;;;-143.90;52.37;74235.78;4918645;28;104137;-74
2023/09/06 10:46:18;;;;;;;;;12.67;12.00;;;;;-143.90;51.84;74277.13;4913370;28;101971;-74
2023/09/06 10:49:12;;;;;;;;;13.00;12.00;;;;;-143.90;50.31;74277.13;4916519;28;102166;-73
2023/09/06 10:52:03;;;;;;;;;9.00;9.00;;;;;-143.90;50.94;74270.94;4918223;28;102481;-75
2023/09/06 10:54:38;;;;;;;;;9.33;9.00;;;;;-143.90;48.43;74233.72;4906683;28;104118;-75
2023/09/06 10:57:07;;;;;;;;;11.00;11.00;;;;;-143.90;46.33;74275.06;4900444;28;102079;-74
2023/09/06 10:59:37;;;;;;;;;10.67;10.67;;;;;-143.90;48.13;74285.41;4917390;28;103386;-73
2023/09/06 11:02:18;;;;;;;;;9.00;8.00;;;;;-143.90;47.81;74252.34;4915125;28;102042;-75
2023/09/06 11:04:48;;;;;;;;;11.00;11.00;;;;;-143.90;46.84;74250.25;4910969;28;108659;-75
2023/09/06 11:07:15;;;;;;;;;9.67;8.00;;;;;-143.90;45.40;74242.00;4914813;28;101890;-75
2023/09/06 11:09:49;;;;;;;;;14.67;14.00;;;;;-143.90;46.63;74248.19;4920187;28;103662;-75
2023/09/06 11:12:16;;;;;;;;;11.00;8.00;;;;;-143.90;47.40;74237.88;4903222;28;102043;-74
2023/09/06 11:14:49;;;;;;;;;8.00;7.00;;;;;-143.90;49.78;74211.00;4902052;28;105419;-74